createdAt,value
2019-05-06T00:01:54.009Z,67.70
2019-05-06T00:04:22.060Z,66.40
2019-05-06T00:06:50.003Z,66.40
2019-05-06T00:09:18.128Z,66.20
2019-05-06T00:11:46.142Z,66.20
2019-05-06T00:14:14.425Z,66.40
2019-05-06T00:16:44.007Z,67.10
2019-05-06T00:19:13.931Z,66.40
2019-05-06T00:21:44.197Z,66.40
2019-05-06T00:24:14.404Z,66.80
2019-05-06T00:26:57.981Z,66.60
2019-05-06T00:29:28.186Z,67.00
2019-05-06T00:31:56.164Z,66.90
2019-05-06T00:34:24.667Z,67.10
2019-05-06T00:36:54.466Z,67.10
2019-05-06T00:39:44.386Z,67.20
2019-05-06T00:42:29.060Z,67.20
2019-05-06T00:44:57.180Z,67.10
2019-05-06T00:47:25.229Z,67.10
2019-05-06T00:49:54.578Z,67.10
2019-05-06T00:52:25.838Z,66.90
2019-05-06T00:54:54.718Z,66.80
2019-05-06T00:57:43.864Z,66.60
2019-05-06T01:00:18.939Z,66.60
2019-05-06T01:02:47.079Z,67.10
2019-05-06T01:05:15.551Z,66.70
2019-05-06T01:07:44.072Z,66.50
2019-05-06T01:10:15.421Z,66.40
2019-05-06T01:12:49.965Z,66.30
2019-05-06T01:15:19.362Z,66.30
2019-05-06T01:17:47.719Z,66.20
2019-05-06T01:20:17.377Z,66.20
2019-05-06T01:22:46.681Z,66.30
2019-05-06T01:25:14.951Z,66.20
2019-05-06T01:27:47.487Z,66.40
2019-05-06T01:30:17.294Z,66.00
2019-05-06T01:32:45.299Z,66.10
2019-05-06T01:35:14.024Z,66.00
2019-05-06T01:37:44.174Z,66.00
2019-05-06T01:40:37.878Z,66.30
2019-05-06T01:43:19.061Z,66.10
2019-05-06T01:45:47.097Z,65.90
2019-05-06T01:48:17.297Z,66.00
2019-05-06T01:50:45.599Z,65.90
2019-05-06T01:53:14.066Z,65.90
2019-05-06T01:55:43.769Z,66.00
2019-05-06T01:58:11.825Z,66.00
2019-05-06T02:00:40.111Z,66.00
2019-05-06T02:03:08.093Z,66.00
2019-05-06T02:05:36.089Z,66.10
2019-05-06T02:08:04.134Z,66.00
2019-05-06T02:10:34.503Z,66.00
2019-05-06T02:13:03.864Z,65.90
2019-05-06T02:15:34.508Z,66.00
2019-05-06T02:18:04.075Z,66.00
2019-05-06T02:20:34.001Z,66.00
2019-05-06T02:23:10.718Z,66.00
2019-05-06T02:25:44.647Z,65.90
2019-05-06T02:28:14.338Z,66.00
2019-05-06T02:30:54.783Z,66.00
2019-05-06T02:33:35.605Z,66.20
2019-05-06T02:36:25.964Z,66.20
2019-05-06T02:38:55.650Z,66.20
2019-05-06T02:41:24.026Z,66.30
2019-05-06T02:43:54.181Z,66.20
2019-05-06T02:46:23.806Z,66.30
2019-05-06T02:49:17.360Z,66.20
2019-05-06T02:51:45.674Z,66.70
2019-05-06T02:54:13.673Z,66.50
2019-05-06T02:56:43.594Z,66.10
2019-05-06T02:59:12.811Z,66.10
2019-05-06T03:01:43.304Z,66.20
2019-05-06T03:04:13.223Z,66.10
2019-05-06T03:06:44.438Z,66.10
2019-05-06T03:09:13.542Z,66.20
2019-05-06T03:11:43.890Z,66.10
2019-05-06T03:14:13.898Z,66.10
2019-05-06T03:16:43.916Z,66.10
2019-05-06T03:19:13.287Z,66.10
2019-05-06T03:22:15.720Z,66.00
2019-05-06T03:24:54.187Z,66.10
2019-05-06T03:27:23.526Z,66.10
2019-05-06T03:29:53.676Z,66.10
2019-05-06T03:32:25.180Z,66.10
2019-05-06T03:35:07.574Z,66.10
2019-05-06T03:37:23.691Z,66.00
2019-05-06T03:39:52.919Z,66.20
2019-05-06T03:42:23.089Z,66.20
2019-05-06T03:44:54.726Z,66.10
2019-05-06T03:47:35.157Z,66.10
2019-05-06T03:50:04.964Z,66.10
2019-05-06T03:52:34.200Z,66.20
2019-05-06T03:55:03.781Z,66.20
2019-05-06T03:57:35.447Z,66.20
2019-05-06T04:00:04.675Z,66.10
2019-05-06T04:02:34.298Z,66.30
2019-05-06T04:05:03.993Z,66.20
2019-05-06T04:07:34.048Z,66.10
2019-05-06T04:10:03.579Z,65.90
2019-05-06T04:12:33.890Z,65.90
2019-05-06T04:15:04.027Z,65.90
2019-05-06T04:17:43.835Z,65.80
2019-05-06T04:20:34.294Z,65.80
2019-05-06T04:23:14.201Z,65.50
2019-05-06T04:25:55.084Z,65.40
2019-05-06T04:28:25.931Z,65.20
2019-05-06T04:30:54.916Z,64.80
2019-05-06T04:33:23.781Z,64.70
2019-05-06T04:35:54.178Z,64.70
2019-05-06T04:38:23.757Z,64.60
2019-05-06T04:40:53.914Z,64.50
2019-05-06T04:43:23.538Z,64.40
2019-05-06T04:45:54.029Z,64.20
2019-05-06T04:48:23.797Z,64.10
2019-05-06T04:50:53.848Z,64.00
2019-05-06T04:53:26.489Z,63.90
2019-05-06T04:55:53.881Z,63.80
2019-05-06T04:58:23.334Z,63.70
2019-05-06T05:00:53.145Z,63.70
2019-05-06T05:03:22.818Z,63.60
2019-05-06T05:05:53.003Z,63.80
2019-05-06T05:08:35.644Z,63.70
2019-05-06T05:11:12.922Z,63.70
2019-05-06T05:14:02.802Z,63.60
2019-05-06T05:16:54.413Z,63.60
2019-05-06T05:19:23.046Z,63.60
2019-05-06T05:21:54.851Z,63.60
2019-05-06T05:24:23.745Z,63.70
2019-05-06T05:26:52.269Z,63.70
2019-05-06T05:29:20.383Z,63.80
2019-05-06T05:31:48.792Z,63.80
2019-05-06T05:34:16.823Z,63.60
2019-05-06T05:36:44.776Z,63.80
2019-05-06T05:39:12.817Z,63.60
2019-05-06T05:41:42.921Z,63.50
2019-05-06T05:44:26.580Z,63.80
2019-05-06T05:46:54.573Z,63.80
2019-05-06T05:49:41.945Z,63.80
2019-05-06T05:52:10.029Z,64.20
2019-05-06T05:54:38.113Z,64.10
2019-05-06T05:57:06.130Z,64.10
2019-05-06T05:59:34.147Z,63.50
2019-05-06T06:02:03.783Z,63.60
2019-05-06T06:04:32.423Z,63.40
2019-05-06T06:07:02.499Z,63.40
2019-05-06T06:09:33.901Z,63.40
2019-05-06T06:12:04.863Z,63.40
2019-05-06T06:14:55.317Z,63.30
2019-05-06T06:17:45.830Z,63.40
2019-05-06T06:20:32.797Z,63.40
2019-05-06T06:23:14.302Z,63.60
2019-05-06T06:25:43.666Z,63.60
2019-05-06T06:28:12.224Z,63.70
2019-05-06T06:30:51.923Z,63.70
2019-05-06T06:33:22.162Z,63.90
2019-05-06T06:36:15.141Z,64.00
2019-05-06T06:38:52.979Z,64.10
2019-05-06T06:41:22.830Z,64.00
2019-05-06T06:43:54.824Z,64.10
2019-05-06T06:46:22.960Z,64.10
2019-05-06T06:48:52.752Z,64.50
2019-05-06T06:51:23.196Z,64.30
2019-05-06T06:53:52.823Z,64.50
2019-05-06T06:56:32.823Z,64.70
2019-05-06T06:59:25.152Z,64.80
2019-05-06T07:02:12.746Z,64.70
2019-05-06T07:04:49.986Z,64.70
2019-05-06T07:07:19.700Z,65.00
2019-05-06T07:09:47.711Z,65.00
2019-05-06T07:12:15.756Z,64.80
2019-05-06T07:14:43.804Z,65.00
2019-05-06T07:17:13.324Z,64.90
2019-05-06T07:19:46.524Z,64.90
2019-05-06T07:22:14.538Z,65.10
2019-05-06T07:24:43.111Z,65.10
2019-05-06T07:27:19.063Z,63.50
2019-05-06T07:29:48.821Z,62.40
2019-05-06T07:32:16.910Z,61.70
2019-05-06T07:34:45.494Z,61.10
2019-05-06T07:37:13.473Z,61.60
2019-05-06T07:39:43.152Z,60.60
2019-05-06T07:42:19.790Z,60.50
2019-05-06T07:45:18.601Z,60.20
2019-05-06T07:47:50.266Z,59.90
2019-05-06T07:50:18.624Z,59.70
2019-05-06T07:53:04.916Z,59.60
2019-05-06T07:55:33.070Z,59.50
2019-05-06T07:58:02.885Z,59.10
2019-05-06T08:00:32.776Z,59.20
2019-05-06T08:03:02.596Z,59.30
2019-05-06T08:05:32.356Z,58.90
2019-05-06T08:08:03.645Z,58.30
2019-05-06T08:10:33.228Z,58.00
2019-05-06T08:13:02.740Z,57.60
2019-05-06T08:15:32.562Z,57.20
2019-05-06T08:18:03.340Z,56.70
2019-05-06T08:20:37.258Z,56.50
2019-05-06T08:23:34.964Z,56.20
2019-05-06T08:26:12.651Z,56.00
2019-05-06T08:28:41.026Z,55.60
2019-05-06T08:31:03.467Z,55.40
2019-05-06T08:33:32.744Z,55.10
2019-05-06T08:36:11.457Z,55.00
2019-05-06T08:38:53.186Z,54.80
2019-05-06T08:41:22.736Z,54.50
2019-05-06T08:43:52.852Z,54.30
2019-05-06T08:46:23.201Z,53.80
2019-05-06T08:48:52.583Z,53.70
2019-05-06T08:51:53.076Z,53.80
2019-05-06T08:54:32.551Z,54.00
2019-05-06T08:57:02.469Z,55.00
2019-05-06T08:59:32.099Z,55.20
2019-05-06T09:02:03.162Z,54.70
2019-05-06T09:04:32.083Z,54.80
2019-05-06T09:07:02.761Z,54.20
2019-05-06T09:09:32.403Z,54.00
2019-05-06T09:12:02.474Z,53.90
2019-05-06T09:14:32.400Z,53.50
2019-05-06T09:17:02.589Z,53.30
2019-05-06T09:19:32.975Z,53.50
2019-05-06T09:22:02.489Z,53.90
2019-05-06T09:24:32.148Z,54.50
2019-05-06T09:27:17.731Z,54.50
2019-05-06T09:29:48.064Z,54.60
2019-05-06T09:32:22.794Z,55.30
2019-05-06T09:34:56.958Z,56.20
2019-05-06T09:37:24.915Z,56.60
2019-05-06T09:39:53.578Z,57.90
2019-05-06T09:42:23.206Z,58.00
2019-05-06T09:44:54.270Z,58.00
2019-05-06T09:47:42.662Z,58.10
2019-05-06T09:50:15.270Z,58.10
2019-05-06T09:52:44.388Z,58.10
2019-05-06T09:55:22.554Z,58.20
2019-05-06T09:58:16.308Z,58.20
2019-05-06T10:00:48.940Z,58.30
2019-05-06T10:03:16.989Z,58.30
2019-05-06T10:05:45.167Z,58.40
2019-05-06T10:08:13.431Z,58.40
2019-05-06T10:10:53.657Z,58.50
2019-05-06T10:13:12.822Z,58.90
2019-05-06T10:15:42.880Z,59.00
2019-05-06T10:18:13.141Z,59.00
2019-05-06T10:20:46.096Z,59.40
2019-05-06T10:23:14.443Z,59.50
2019-05-06T10:25:43.813Z,59.50
2019-05-06T10:28:23.426Z,59.60
2019-05-06T10:30:51.680Z,59.60
2019-05-06T10:33:21.595Z,60.00
2019-05-06T10:35:49.699Z,60.20
2019-05-06T10:38:55.052Z,60.20
2019-05-06T10:41:29.411Z,60.10
2019-05-06T10:44:42.603Z,60.20
2019-05-06T10:47:12.027Z,60.20
2019-05-06T10:49:41.919Z,60.20
2019-05-06T10:52:23.746Z,60.20
2019-05-06T10:54:52.089Z,60.20
2019-05-06T10:57:40.520Z,60.20
2019-05-06T11:00:09.004Z,60.20
2019-05-06T11:03:08.781Z,60.20
2019-05-06T11:05:36.956Z,60.50
2019-05-06T11:08:05.042Z,60.60
2019-05-06T11:10:40.885Z,60.60
2019-05-06T11:13:03.585Z,60.50
2019-05-06T11:15:32.991Z,60.60
2019-05-06T11:18:04.268Z,60.50
2019-05-06T11:20:33.454Z,60.50
2019-05-06T11:23:02.068Z,60.60
2019-05-06T11:25:32.299Z,60.50
2019-05-06T11:28:00.266Z,60.50
2019-05-06T11:30:46.235Z,60.50
2019-05-06T11:33:27.085Z,60.60
2019-05-06T11:36:00.948Z,60.60
2019-05-06T11:38:29.026Z,60.60
2019-05-06T11:40:57.143Z,60.60
2019-05-06T11:43:25.146Z,60.50
2019-05-06T11:45:53.353Z,60.60
2019-05-06T11:48:22.298Z,60.60
2019-05-06T11:50:53.069Z,60.50
2019-05-06T11:53:23.157Z,60.60
2019-05-06T11:55:54.349Z,60.60
2019-05-06T11:58:42.472Z,60.60
2019-05-06T12:01:15.395Z,60.60
2019-05-06T12:03:43.535Z,60.70
2019-05-06T12:06:13.010Z,60.70
2019-05-06T12:08:43.158Z,60.70
2019-05-06T12:11:12.531Z,60.70
2019-05-06T12:13:42.493Z,60.70
2019-05-06T12:16:14.189Z,60.60
2019-05-06T12:18:42.314Z,60.70
2019-05-06T12:21:14.624Z,60.90
2019-05-06T12:23:44.772Z,61.20
2019-05-06T12:26:13.375Z,62.00
2019-05-06T12:28:43.573Z,61.90
2019-05-06T12:31:12.655Z,61.80
2019-05-06T12:33:49.260Z,61.80
2019-05-06T12:36:21.811Z,61.70
2019-05-06T12:39:09.956Z,61.70
2019-05-06T12:42:13.111Z,61.70
2019-05-06T12:44:43.700Z,61.70
2019-05-06T12:47:38.448Z,61.70
2019-05-06T12:50:08.153Z,61.70
2019-05-06T12:52:37.177Z,62.00
2019-05-06T12:55:18.474Z,62.60
2019-05-06T12:57:37.237Z,62.50
2019-05-06T13:00:05.925Z,62.70
2019-05-06T13:02:34.333Z,62.50
2019-05-06T13:05:04.004Z,62.20
2019-05-06T13:07:38.949Z,62.70
2019-05-06T13:10:07.708Z,62.50
2019-05-06T13:12:37.753Z,62.50
2019-05-06T13:15:08.236Z,62.50
2019-05-06T13:17:36.571Z,62.70
2019-05-06T13:20:07.274Z,62.70
2019-05-06T13:23:07.464Z,62.60
2019-05-06T13:25:32.772Z,62.80
2019-05-06T13:28:01.331Z,62.60
2019-05-06T13:30:29.363Z,62.60
2019-05-06T13:33:04.127Z,62.80
2019-05-06T13:35:32.772Z,62.50
2019-05-06T13:38:00.834Z,62.90
2019-05-06T13:40:29.096Z,62.60
2019-05-06T13:43:15.371Z,62.50
2019-05-06T13:45:45.562Z,62.60
2019-05-06T13:48:22.745Z,62.60
2019-05-06T13:50:52.554Z,62.60
2019-05-06T13:53:23.016Z,62.80
2019-05-06T13:55:52.600Z,62.90
2019-05-06T13:58:20.834Z,62.80
2019-05-06T14:00:49.072Z,62.70
2019-05-06T14:03:17.634Z,62.70
2019-05-06T14:05:46.022Z,62.80
2019-05-06T14:08:14.040Z,62.80
2019-05-06T14:10:42.448Z,62.70
2019-05-06T14:13:12.761Z,62.70
2019-05-06T14:15:42.095Z,62.80
2019-05-06T14:18:10.304Z,62.80
2019-05-06T14:20:38.327Z,62.80
2019-05-06T14:23:06.880Z,62.80
2019-05-06T14:25:53.317Z,62.70
2019-05-06T14:28:27.415Z,62.70
2019-05-06T14:31:03.146Z,62.70
2019-05-06T14:33:32.313Z,62.70
2019-05-06T14:36:03.028Z,62.70
2019-05-06T14:38:34.702Z,62.60
2019-05-06T14:41:26.194Z,62.60
2019-05-06T14:44:05.370Z,62.60
2019-05-06T14:47:06.132Z,62.60
2019-05-06T14:49:34.142Z,62.50
2019-05-06T14:52:02.902Z,62.60
2019-05-06T14:54:33.130Z,62.60
2019-05-06T14:57:12.215Z,62.60
2019-05-06T14:59:42.185Z,62.60
2019-05-06T15:02:13.180Z,62.70
2019-05-06T15:04:43.505Z,62.70
2019-05-06T15:07:12.761Z,62.80
2019-05-06T15:09:55.717Z,62.80
2019-05-06T15:12:12.988Z,62.80
2019-05-06T15:14:42.485Z,62.90
2019-05-06T15:17:14.196Z,63.00
2019-05-06T15:19:42.849Z,62.90
2019-05-06T15:22:12.957Z,62.80
2019-05-06T15:24:42.626Z,62.90
2019-05-06T15:27:11.975Z,62.70
2019-05-06T15:29:42.192Z,62.70
2019-05-06T15:32:29.772Z,62.60
2019-05-06T15:35:05.051Z,62.50
2019-05-06T15:37:47.056Z,62.50
2019-05-06T15:40:15.500Z,62.60
2019-05-06T15:42:44.504Z,62.50
2019-05-06T15:45:12.802Z,62.50
2019-05-06T15:47:42.577Z,62.60
2019-05-06T15:50:12.788Z,62.50
2019-05-06T15:52:43.409Z,62.50
2019-05-06T15:55:11.696Z,62.60
2019-05-06T15:57:39.760Z,62.50
2019-05-06T16:00:09.123Z,62.50
2019-05-06T16:02:37.250Z,62.50
2019-05-06T16:05:13.625Z,62.50
2019-05-06T16:07:37.314Z,62.50
2019-05-06T16:10:06.808Z,62.50
2019-05-06T16:12:34.844Z,62.50
2019-05-06T16:15:03.348Z,62.40
2019-05-06T16:17:53.387Z,62.50
2019-05-06T16:20:23.684Z,62.50
2019-05-06T16:22:59.446Z,62.50
2019-05-06T16:25:27.487Z,62.50
2019-05-06T16:27:56.841Z,62.50
2019-05-06T16:30:25.083Z,62.50
2019-05-06T16:32:54.860Z,62.50
2019-05-06T16:35:23.098Z,62.60
2019-05-06T16:37:51.364Z,62.50
2019-05-06T16:40:22.920Z,62.60
2019-05-06T16:42:54.152Z,62.60
2019-05-06T16:45:23.380Z,62.60
2019-05-06T16:47:52.589Z,62.60
2019-05-06T16:50:23.054Z,62.60
2019-05-06T16:52:52.692Z,62.60
2019-05-06T16:55:26.902Z,62.60
2019-05-06T16:58:04.302Z,62.60
2019-05-06T17:00:34.721Z,62.60
2019-05-06T17:03:25.634Z,62.60
2019-05-06T17:06:08.552Z,62.60
2019-05-06T17:08:36.837Z,62.60
2019-05-06T17:11:05.703Z,62.60
2019-05-06T17:13:37.297Z,62.60
2019-05-06T17:16:06.672Z,62.60
2019-05-06T17:18:35.480Z,62.50
2019-05-06T17:21:04.506Z,62.60
2019-05-06T17:23:33.299Z,62.60
2019-05-06T17:26:01.841Z,62.60
2019-05-06T17:28:36.163Z,62.70
2019-05-06T17:31:35.752Z,62.60
2019-05-06T17:34:05.042Z,62.60
2019-05-06T17:36:34.484Z,63.30
2019-05-06T17:39:05.002Z,62.60
2019-05-06T17:41:44.893Z,62.60
2019-05-06T17:44:03.287Z,62.60
2019-05-06T17:46:51.680Z,62.60
2019-05-06T17:49:24.295Z,62.70
2019-05-06T17:52:07.181Z,62.70
2019-05-06T17:54:35.839Z,62.70
2019-05-06T17:57:04.661Z,62.70
2019-05-06T17:59:33.804Z,62.70
2019-05-06T18:02:06.296Z,62.70
2019-05-06T18:04:37.243Z,62.70
2019-05-06T18:07:05.293Z,62.70
2019-05-06T18:09:33.588Z,62.80
2019-05-06T18:12:03.168Z,62.70
2019-05-06T18:14:33.190Z,62.70
2019-05-06T18:17:03.439Z,62.70
2019-05-06T18:19:33.176Z,62.70
2019-05-06T18:22:02.498Z,62.60
2019-05-06T18:24:33.057Z,62.60
2019-05-06T18:27:02.636Z,62.60
2019-05-06T18:29:34.049Z,62.60
2019-05-06T18:32:03.727Z,62.60
2019-05-06T18:34:33.062Z,62.60
2019-05-06T18:37:03.175Z,62.60
2019-05-06T18:39:33.711Z,62.60
2019-05-06T18:42:15.711Z,62.70
2019-05-06T18:44:33.335Z,62.60
2019-05-06T18:47:02.711Z,62.60
2019-05-06T18:49:33.520Z,62.60
2019-05-06T18:52:02.000Z,62.60
2019-05-06T18:54:30.374Z,62.60
2019-05-06T18:56:58.955Z,62.60
2019-05-06T18:59:27.404Z,62.70
2019-05-06T19:01:56.704Z,62.80
2019-05-06T19:04:49.613Z,62.60
2019-05-06T19:07:17.953Z,62.70
2019-05-06T19:10:05.147Z,62.50
2019-05-06T19:12:40.602Z,62.40
2019-05-06T19:15:03.964Z,62.20
2019-05-06T19:17:33.575Z,62.10
2019-05-06T19:20:02.655Z,61.90
2019-05-06T19:22:32.495Z,61.70
2019-05-06T19:25:03.700Z,61.70
2019-05-06T19:27:32.752Z,61.70
2019-05-06T19:30:05.487Z,61.60
2019-05-06T19:32:35.184Z,61.60
2019-05-06T19:35:06.371Z,61.50
2019-05-06T19:37:38.527Z,61.50
2019-05-06T19:40:09.460Z,61.50
2019-05-06T19:42:47.042Z,61.40
2019-05-06T19:45:08.207Z,61.30
2019-05-06T19:47:36.949Z,61.30
2019-05-06T19:50:05.418Z,61.20
2019-05-06T19:52:33.407Z,61.30
2019-05-06T19:55:03.080Z,61.30
2019-05-06T19:57:32.348Z,61.40
2019-05-06T20:00:02.980Z,61.20
2019-05-06T20:02:32.011Z,60.80
2019-05-06T20:05:04.454Z,61.20
2019-05-06T20:07:38.840Z,60.50
2019-05-06T20:10:25.346Z,61.30
2019-05-06T20:13:01.600Z,61.40
2019-05-06T20:15:33.503Z,61.20
2019-05-06T20:18:03.316Z,62.60
2019-05-06T20:20:34.347Z,62.10
2019-05-06T20:23:02.701Z,62.60
2019-05-06T20:25:31.862Z,62.60
2019-05-06T20:28:02.231Z,62.60
2019-05-06T20:30:32.543Z,62.80
2019-05-06T20:33:00.104Z,62.90
2019-05-06T20:35:28.202Z,63.00
2019-05-06T20:37:56.388Z,63.00
2019-05-06T20:40:24.487Z,63.10
2019-05-06T20:42:52.674Z,63.10
2019-05-06T20:45:22.356Z,63.10
2019-05-06T20:47:52.493Z,63.20
2019-05-06T20:50:22.595Z,63.20
2019-05-06T20:52:52.000Z,63.20
2019-05-06T20:55:22.895Z,63.20
2019-05-06T20:57:52.920Z,63.30
2019-05-06T21:00:22.417Z,63.20
2019-05-06T21:02:50.562Z,63.40
2019-05-06T21:05:18.586Z,63.40
2019-05-06T21:07:46.680Z,63.30
2019-05-06T21:10:15.319Z,63.40
2019-05-06T21:12:43.485Z,63.40
2019-05-06T21:15:13.305Z,63.40
2019-05-06T21:17:42.036Z,63.40
2019-05-06T21:20:14.149Z,63.40
2019-05-06T21:22:43.824Z,63.50
2019-05-06T21:25:12.986Z,63.70
2019-05-06T21:27:42.467Z,64.00
2019-05-06T21:30:13.186Z,63.80
2019-05-06T21:32:42.672Z,63.90
2019-05-06T21:35:12.583Z,64.00
2019-05-06T21:37:43.738Z,64.00
2019-05-06T21:40:12.428Z,64.00
2019-05-06T21:42:42.934Z,63.90
2019-05-06T21:45:12.555Z,64.00
2019-05-06T21:47:44.378Z,64.20
2019-05-06T21:50:12.064Z,64.20
2019-05-06T21:52:42.810Z,64.30
2019-05-06T21:55:12.918Z,64.30
2019-05-06T21:57:42.286Z,64.30
2019-05-06T22:00:16.526Z,64.50
2019-05-06T22:02:45.200Z,64.40
2019-05-06T22:05:18.796Z,64.40
2019-05-06T22:07:47.216Z,64.50
2019-05-06T22:10:19.181Z,64.50
2019-05-06T22:12:47.518Z,64.80
2019-05-06T22:15:15.486Z,64.90
2019-05-06T22:17:43.696Z,64.80
2019-05-06T22:20:13.494Z,64.90
2019-05-06T22:22:42.608Z,65.10
2019-05-06T22:25:12.540Z,65.10
2019-05-06T22:27:44.259Z,65.20
2019-05-06T22:30:10.590Z,65.10
2019-05-06T22:32:44.830Z,65.00
2019-05-06T22:35:14.491Z,65.10
2019-05-06T22:37:45.092Z,65.40
2019-05-06T22:40:14.762Z,65.40
2019-05-06T22:42:43.276Z,65.20
2019-05-06T22:45:12.545Z,65.20
2019-05-06T22:47:42.125Z,65.40
2019-05-06T22:50:12.877Z,65.30
2019-05-06T22:52:42.087Z,65.50
2019-05-06T22:55:12.756Z,65.80
2019-05-06T22:57:42.246Z,65.60
2019-05-06T23:00:22.412Z,65.70
2019-05-06T23:03:02.310Z,65.80
2019-05-06T23:05:32.594Z,65.80
2019-05-06T23:08:02.758Z,65.90
2019-05-06T23:10:30.843Z,65.90
2019-05-06T23:12:59.980Z,66.00
2019-05-06T23:15:28.061Z,66.80
2019-05-06T23:17:56.022Z,66.00
2019-05-06T23:20:24.477Z,66.10
2019-05-06T23:22:55.583Z,66.10
2019-05-06T23:25:23.914Z,66.10
2019-05-06T23:27:52.984Z,66.10
2019-05-06T23:30:23.444Z,66.10
2019-05-06T23:32:53.019Z,66.20
2019-05-06T23:35:22.001Z,66.30
2019-05-06T23:38:44.635Z,66.30
2019-05-06T23:42:08.060Z,66.30
2019-05-06T23:45:32.426Z,66.40
2019-05-06T23:48:55.212Z,66.50
2019-05-06T23:52:17.764Z,66.60
2019-05-06T23:55:42.029Z,66.60
2019-05-06T23:58:08.346Z,66.70
